Terminal Aerodrome Forecast
Issued by NWS

Home | Current Version | Previous Version | Text Only | Print | Product List | Glossary On
Versions: 1 2 3 4 5 6 7 8 9 10 11 12 13 14 15
000
FTUS45 KABQ 281126
TAFSAF
TAF
KSAF 281126Z 2812/2912 01006KT P6SM BKN100
     FM282000 25008KT P6SM VCSH BKN080
     FM290200 13012KT P6SM BKN070=

USA.gov is the U.S. government's official web portal to all federal, state and local government web resources and services.